Grimesland, North Carolina
Current Conditions -  °F | °C
As of 2:35 AM on Wednesday 22 Oct 2014 (Local Time) from KOCW Reporting Station
Broken Clouds Broken Clouds  
Wind Chill: 56°   Ceiling: 12000
Heat Index: 56°   Visibility: 10mi
Dew Point: 48°   Wind: 3mph
Humidity: 75%   Direction: 330°NNW
Pressure: 29.87"   Gusts: NA
Location:  35.56°N, 77.19°W
Report Text: KOCW 220635Z AUTO 33003KT 10SM SCT100 BKN120 13/09 A2987 RMK AO2 T01310088
Loading
Personal Weather Stations






























Interactive Weather Map
Tropical Storm Tracking
New forecast layout! Learn more

10-Day Weather Forecast

Advertisements
Track Severe Weather on mobile